sensor_id;sensor_type;location;lat;lon;timestamp;P1;durP1;ratioP1;P2;durP2;ratioP2
59336;SDS011;45115;52.002;4.686;2022-11-21T00:00:26;39.92;;;20.63;;
59336;SDS011;45115;52.002;4.686;2022-11-21T00:02:53;34.95;;;20.23;;
59336;SDS011;45115;52.002;4.686;2022-11-21T00:05:19;33.25;;;17.80;;
59336;SDS011;45115;52.002;4.686;2022-11-21T00:07:46;30.85;;;18.30;;
59336;SDS011;45115;52.002;4.686;2022-11-21T00:10:14;36.00;;;19.30;;
59336;SDS011;45115;52.002;4.686;2022-11-21T00:12:42;34.80;;;17.67;;
59336;SDS011;45115;52.002;4.686;2022-11-21T00:15:09;35.20;;;18.27;;
59336;SDS011;45115;52.002;4.686;2022-11-21T00:17:36;36.58;;;19.33;;
59336;SDS011;45115;52.002;4.686;2022-11-21T00:20:04;35.20;;;19.00;;
59336;SDS011;45115;52.002;4.686;2022-11-21T00:22:31;35.13;;;19.55;;
59336;SDS011;45115;52.002;4.686;2022-11-21T00:24:58;33.30;;;17.10;;
59336;SDS011;45115;52.002;4.686;2022-11-21T00:27:24;33.15;;;17.92;;
59336;SDS011;45115;52.002;4.686;2022-11-21T00:29:52;39.28;;;20.05;;
59336;SDS011;45115;52.002;4.686;2022-11-21T00:32:19;39.03;;;19.55;;
59336;SDS011;45115;52.002;4.686;2022-11-21T00:34:45;39.35;;;20.05;;
59336;SDS011;45115;52.002;4.686;2022-11-21T00:37:12;36.30;;;18.90;;
59336;SDS011;45115;52.002;4.686;2022-11-21T00:39:39;38.85;;;21.83;;
59336;SDS011;45115;52.002;4.686;2022-11-21T00:42:05;38.72;;;21.73;;
59336;SDS011;45115;52.002;4.686;2022-11-21T00:44:32;37.60;;;20.13;;
59336;SDS011;45115;52.002;4.686;2022-11-21T00:47:00;52.42;;;26.38;;
59336;SDS011;45115;52.002;4.686;2022-11-21T00:49:26;49.10;;;25.80;;
59336;SDS011;45115;52.002;4.686;2022-11-21T00:51:53;52.95;;;25.92;;
59336;SDS011;45115;52.002;4.686;2022-11-21T00:54:20;55.65;;;26.25;;
59336;SDS011;45115;52.002;4.686;2022-11-21T00:56:46;51.70;;;26.02;;
59336;SDS011;45115;52.002;4.686;2022-11-21T00:59:13;62.58;;;29.60;;
59336;SDS011;45115;52.002;4.686;2022-11-21T01:01:40;54.63;;;26.20;;
59336;SDS011;45115;52.002;4.686;2022-11-21T01:04:08;64.38;;;28.55;;
59336;SDS011;45115;52.002;4.686;2022-11-21T01:06:35;55.95;;;27.33;;
59336;SDS011;45115;52.002;4.686;2022-11-21T01:09:02;51.55;;;27.08;;
59336;SDS011;45115;52.002;4.686;2022-11-21T01:11:29;60.13;;;26.92;;
59336;SDS011;45115;52.002;4.686;2022-11-21T01:13:57;56.75;;;28.50;;
59336;SDS011;45115;52.002;4.686;2022-11-21T01:16:25;52.15;;;24.85;;
59336;SDS011;45115;52.002;4.686;2022-11-21T01:18:53;56.80;;;25.48;;
59336;SDS011;45115;52.002;4.686;2022-11-21T01:21:23;53.40;;;25.63;;
59336;SDS011;45115;52.002;4.686;2022-11-21T01:23:51;51.33;;;24.10;;
59336;SDS011;45115;52.002;4.686;2022-11-21T01:26:19;47.92;;;25.60;;
59336;SDS011;45115;52.002;4.686;2022-11-21T01:28:47;50.88;;;24.92;;
59336;SDS011;45115;52.002;4.686;2022-11-21T01:31:15;57.20;;;26.13;;
59336;SDS011;45115;52.002;4.686;2022-11-21T01:33:43;45.42;;;24.58;;
59336;SDS011;45115;52.002;4.686;2022-11-21T01:36:11;47.83;;;26.00;;
59336;SDS011;45115;52.002;4.686;2022-11-21T01:38:40;56.40;;;25.08;;
59336;SDS011;45115;52.002;4.686;2022-11-21T01:41:08;52.03;;;25.83;;
59336;SDS011;45115;52.002;4.686;2022-11-21T01:43:35;45.58;;;23.27;;
59336;SDS011;45115;52.002;4.686;2022-11-21T01:46:03;52.25;;;23.75;;
59336;SDS011;45115;52.002;4.686;2022-11-21T01:48:36;52.33;;;24.90;;
59336;SDS011;45115;52.002;4.686;2022-11-21T01:51:08;52.80;;;23.90;;
59336;SDS011;45115;52.002;4.686;2022-11-21T01:53:39;43.40;;;22.85;;
59336;SDS011;45115;52.002;4.686;2022-11-21T01:56:11;51.40;;;25.75;;
59336;SDS011;45115;52.002;4.686;2022-11-21T01:58:39;51.10;;;26.50;;
59336;SDS011;45115;52.002;4.686;2022-11-21T02:01:07;52.35;;;24.60;;
59336;SDS011;45115;52.002;4.686;2022-11-21T02:03:37;48.38;;;24.38;;
59336;SDS011;45115;52.002;4.686;2022-11-21T02:06:06;40.88;;;22.38;;
59336;SDS011;45115;52.002;4.686;2022-11-21T02:08:35;50.75;;;24.33;;
59336;SDS011;45115;52.002;4.686;2022-11-21T02:11:05;52.15;;;24.48;;
59336;SDS011;45115;52.002;4.686;2022-11-21T02:13:37;71.72;;;27.60;;
59336;SDS011;45115;52.002;4.686;2022-11-21T02:16:04;61.50;;;25.88;;
59336;SDS011;45115;52.002;4.686;2022-11-21T02:18:32;48.33;;;23.00;;
59336;SDS011;45115;52.002;4.686;2022-11-21T02:20:59;54.85;;;24.50;;
59336;SDS011;45115;52.002;4.686;2022-11-21T02:23:33;70.28;;;23.27;;
59336;SDS011;45115;52.002;4.686;2022-11-21T02:26:06;64.47;;;22.77;;
59336;SDS011;45115;52.002;4.686;2022-11-21T02:28:33;48.05;;;22.60;;
59336;SDS011;45115;52.002;4.686;2022-11-21T02:31:00;52.42;;;24.30;;
59336;SDS011;45115;52.002;4.686;2022-11-21T02:33:27;82.75;;;24.40;;
59336;SDS011;45115;52.002;4.686;2022-11-21T02:35:57;54.28;;;21.73;;
59336;SDS011;45115;52.002;4.686;2022-11-21T02:38:25;128.68;;;27.23;;
59336;SDS011;45115;52.002;4.686;2022-11-21T02:43:28;46.30;;;18.63;;
59336;SDS011;45115;52.002;4.686;2022-11-21T02:45:58;112.47;;;23.85;;
59336;SDS011;45115;52.002;4.686;2022-11-21T02:48:24;45.05;;;20.77;;
59336;SDS011;45115;52.002;4.686;2022-11-21T02:50:51;60.10;;;21.85;;
59336;SDS011;45115;52.002;4.686;2022-11-21T02:53:18;111.95;;;25.02;;
59336;SDS011;45115;52.002;4.686;2022-11-21T02:55:45;51.05;;;22.45;;
59336;SDS011;45115;52.002;4.686;2022-11-21T02:58:11;66.07;;;23.20;;
59336;SDS011;45115;52.002;4.686;2022-11-21T03:00:40;51.97;;;21.08;;
59336;SDS011;45115;52.002;4.686;2022-11-21T03:03:07;130.23;;;26.73;;
59336;SDS011;45115;52.002;4.686;2022-11-21T03:05:34;64.35;;;23.77;;
59336;SDS011;45115;52.002;4.686;2022-11-21T03:08:02;57.38;;;22.33;;
59336;SDS011;45115;52.002;4.686;2022-11-21T03:10:30;68.57;;;22.13;;
59336;SDS011;45115;52.002;4.686;2022-11-21T03:12:57;54.70;;;20.88;;
59336;SDS011;45115;52.002;4.686;2022-11-21T03:15:26;70.32;;;24.85;;
59336;SDS011;45115;52.002;4.686;2022-11-21T03:17:55;57.10;;;20.48;;
59336;SDS011;45115;52.002;4.686;2022-11-21T03:20:21;64.38;;;24.17;;
59336;SDS011;45115;52.002;4.686;2022-11-21T03:22:48;46.53;;;20.33;;
59336;SDS011;45115;52.002;4.686;2022-11-21T03:25:15;54.53;;;20.85;;
59336;SDS011;45115;52.002;4.686;2022-11-21T03:27:42;40.63;;;21.23;;
59336;SDS011;45115;52.002;4.686;2022-11-21T03:30:09;49.53;;;23.05;;
59336;SDS011;45115;52.002;4.686;2022-11-21T03:32:37;46.63;;;20.95;;
59336;SDS011;45115;52.002;4.686;2022-11-21T03:35:05;77.85;;;25.77;;
59336;SDS011;45115;52.002;4.686;2022-11-21T03:37:32;92.13;;;26.48;;
59336;SDS011;45115;52.002;4.686;2022-11-21T03:39:59;57.40;;;21.75;;
59336;SDS011;45115;52.002;4.686;2022-11-21T03:42:25;47.03;;;22.30;;
59336;SDS011;45115;52.002;4.686;2022-11-21T03:44:52;65.32;;;21.90;;
59336;SDS011;45115;52.002;4.686;2022-11-21T03:47:19;48.67;;;20.23;;
59336;SDS011;45115;52.002;4.686;2022-11-21T03:49:45;42.97;;;20.25;;
59336;SDS011;45115;52.002;4.686;2022-11-21T03:52:13;74.57;;;23.70;;
59336;SDS011;45115;52.002;4.686;2022-11-21T03:54:40;61.72;;;22.50;;
59336;SDS011;45115;52.002;4.686;2022-11-21T03:57:06;108.03;;;24.95;;
59336;SDS011;45115;52.002;4.686;2022-11-21T03:59:33;92.88;;;27.05;;
59336;SDS011;45115;52.002;4.686;2022-11-21T04:02:00;138.77;;;28.73;;
59336;SDS011;45115;52.002;4.686;2022-11-21T04:04:26;85.78;;;26.10;;
59336;SDS011;45115;52.002;4.686;2022-11-21T04:06:53;104.32;;;24.73;;
59336;SDS011;45115;52.002;4.686;2022-11-21T04:09:21;46.60;;;21.58;;
59336;SDS011;45115;52.002;4.686;2022-11-21T04:11:48;86.97;;;24.33;;
59336;SDS011;45115;52.002;4.686;2022-11-21T04:14:15;101.25;;;23.90;;
59336;SDS011;45115;52.002;4.686;2022-11-21T04:16:42;52.92;;;22.70;;
59336;SDS011;45115;52.002;4.686;2022-11-21T04:19:08;97.57;;;25.15;;
59336;SDS011;45115;52.002;4.686;2022-11-21T04:21:35;109.97;;;27.25;;
59336;SDS011;45115;52.002;4.686;2022-11-21T04:24:02;117.93;;;25.58;;
59336;SDS011;45115;52.002;4.686;2022-11-21T04:26:30;91.72;;;23.33;;
59336;SDS011;45115;52.002;4.686;2022-11-21T04:28:57;73.38;;;22.00;;
59336;SDS011;45115;52.002;4.686;2022-11-21T04:31:24;70.53;;;22.60;;
59336;SDS011;45115;52.002;4.686;2022-11-21T04:33:50;131.80;;;26.85;;
59336;SDS011;45115;52.002;4.686;2022-11-21T04:36:17;120.13;;;25.13;;
59336;SDS011;45115;52.002;4.686;2022-11-21T04:38:44;46.67;;;20.52;;
59336;SDS011;45115;52.002;4.686;2022-11-21T04:41:10;89.22;;;25.35;;
59336;SDS011;45115;52.002;4.686;2022-11-21T04:43:38;113.90;;;24.98;;
59336;SDS011;45115;52.002;4.686;2022-11-21T04:46:05;80.65;;;21.95;;
59336;SDS011;45115;52.002;4.686;2022-11-21T04:48:35;109.78;;;24.10;;
59336;SDS011;45115;52.002;4.686;2022-11-21T04:51:01;51.60;;;19.75;;
59336;SDS011;45115;52.002;4.686;2022-11-21T04:53:28;66.20;;;22.35;;
59336;SDS011;45115;52.002;4.686;2022-11-21T04:55:55;62.00;;;21.02;;
59336;SDS011;45115;52.002;4.686;2022-11-21T04:58:21;100.57;;;27.45;;
59336;SDS011;45115;52.002;4.686;2022-11-21T05:00:49;56.47;;;20.45;;
59336;SDS011;45115;52.002;4.686;2022-11-21T05:03:16;140.45;;;26.73;;
59336;SDS011;45115;52.002;4.686;2022-11-21T05:05:43;59.92;;;20.70;;
59336;SDS011;45115;52.002;4.686;2022-11-21T05:08:09;86.63;;;21.98;;
59336;SDS011;45115;52.002;4.686;2022-11-21T05:10:36;36.67;;;18.42;;
59336;SDS011;45115;52.002;4.686;2022-11-21T05:13:16;102.18;;;22.05;;
59336;SDS011;45115;52.002;4.686;2022-11-21T05:15:46;88.85;;;21.77;;
59336;SDS011;45115;52.002;4.686;2022-11-21T05:18:17;84.55;;;23.00;;
59336;SDS011;45115;52.002;4.686;2022-11-21T05:20:44;90.63;;;22.85;;
59336;SDS011;45115;52.002;4.686;2022-11-21T05:23:11;65.18;;;21.65;;
59336;SDS011;45115;52.002;4.686;2022-11-21T05:25:38;58.88;;;20.15;;
59336;SDS011;45115;52.002;4.686;2022-11-21T05:28:05;55.38;;;17.77;;
59336;SDS011;45115;52.002;4.686;2022-11-21T05:30:31;56.67;;;20.42;;
59336;SDS011;45115;52.002;4.686;2022-11-21T05:32:58;66.30;;;20.33;;
59336;SDS011;45115;52.002;4.686;2022-11-21T05:35:26;59.95;;;19.65;;
59336;SDS011;45115;52.002;4.686;2022-11-21T05:37:56;31.98;;;17.35;;
59336;SDS011;45115;52.002;4.686;2022-11-21T05:40:23;37.75;;;17.70;;
59336;SDS011;45115;52.002;4.686;2022-11-21T05:42:50;56.85;;;18.50;;
59336;SDS011;45115;52.002;4.686;2022-11-21T05:45:34;49.83;;;17.63;;
59336;SDS011;45115;52.002;4.686;2022-11-21T05:48:01;35.03;;;16.98;;
59336;SDS011;45115;52.002;4.686;2022-11-21T05:50:33;42.15;;;18.52;;
59336;SDS011;45115;52.002;4.686;2022-11-21T05:53:00;33.40;;;16.30;;
59336;SDS011;45115;52.002;4.686;2022-11-21T05:55:29;66.45;;;18.58;;
59336;SDS011;45115;52.002;4.686;2022-11-21T05:57:56;45.08;;;17.52;;
59336;SDS011;45115;52.002;4.686;2022-11-21T06:00:25;53.60;;;17.73;;
59336;SDS011;45115;52.002;4.686;2022-11-21T06:02:51;95.00;;;19.98;;
59336;SDS011;45115;52.002;4.686;2022-11-21T06:05:37;35.95;;;16.52;;
59336;SDS011;45115;52.002;4.686;2022-11-21T06:08:04;39.95;;;16.85;;
59336;SDS011;45115;52.002;4.686;2022-11-21T06:10:31;40.67;;;17.15;;
59336;SDS011;45115;52.002;4.686;2022-11-21T06:12:58;36.70;;;17.50;;
59336;SDS011;45115;52.002;4.686;2022-11-21T06:15:25;32.58;;;15.77;;
59336;SDS011;45115;52.002;4.686;2022-11-21T06:17:52;34.70;;;16.95;;
59336;SDS011;45115;52.002;4.686;2022-11-21T06:20:19;34.28;;;16.80;;
59336;SDS011;45115;52.002;4.686;2022-11-21T06:22:47;36.88;;;17.65;;
59336;SDS011;45115;52.002;4.686;2022-11-21T06:25:14;35.85;;;15.82;;
59336;SDS011;45115;52.002;4.686;2022-11-21T06:27:41;51.83;;;20.05;;
59336;SDS011;45115;52.002;4.686;2022-11-21T06:30:08;36.40;;;16.90;;
59336;SDS011;45115;52.002;4.686;2022-11-21T06:32:35;39.58;;;17.02;;
59336;SDS011;45115;52.002;4.686;2022-11-21T06:35:03;34.00;;;16.08;;
59336;SDS011;45115;52.002;4.686;2022-11-21T06:37:30;45.53;;;18.15;;
59336;SDS011;45115;52.002;4.686;2022-11-21T06:39:58;34.47;;;16.63;;
59336;SDS011;45115;52.002;4.686;2022-11-21T06:42:25;31.75;;;16.23;;
59336;SDS011;45115;52.002;4.686;2022-11-21T06:44:51;32.28;;;16.80;;
59336;SDS011;45115;52.002;4.686;2022-11-21T06:47:18;41.45;;;16.35;;
59336;SDS011;45115;52.002;4.686;2022-11-21T06:49:45;31.67;;;15.52;;
59336;SDS011;45115;52.002;4.686;2022-11-21T06:52:11;38.90;;;17.15;;
59336;SDS011;45115;52.002;4.686;2022-11-21T06:54:38;35.63;;;15.88;;
59336;SDS011;45115;52.002;4.686;2022-11-21T06:57:06;41.25;;;18.55;;
59336;SDS011;45115;52.002;4.686;2022-11-21T06:59:33;26.50;;;14.00;;
59336;SDS011;45115;52.002;4.686;2022-11-21T07:02:00;37.97;;;15.93;;
59336;SDS011;45115;52.002;4.686;2022-11-21T07:04:26;36.45;;;17.17;;
59336;SDS011;45115;52.002;4.686;2022-11-21T07:06:53;35.40;;;16.38;;
59336;SDS011;45115;52.002;4.686;2022-11-21T07:09:20;32.67;;;16.55;;
59336;SDS011;45115;52.002;4.686;2022-11-21T07:11:46;30.05;;;15.75;;
59336;SDS011;45115;52.002;4.686;2022-11-21T07:14:16;38.47;;;17.52;;
59336;SDS011;45115;52.002;4.686;2022-11-21T07:16:41;30.40;;;15.70;;
59336;SDS011;45115;52.002;4.686;2022-11-21T07:19:08;35.47;;;17.08;;
59336;SDS011;45115;52.002;4.686;2022-11-21T07:21:35;36.03;;;16.17;;
59336;SDS011;45115;52.002;4.686;2022-11-21T07:24:02;33.00;;;16.50;;
59336;SDS011;45115;52.002;4.686;2022-11-21T07:26:29;32.28;;;15.77;;
59336;SDS011;45115;52.002;4.686;2022-11-21T07:28:57;34.47;;;16.65;;
59336;SDS011;45115;52.002;4.686;2022-11-21T07:31:25;32.38;;;16.25;;
59336;SDS011;45115;52.002;4.686;2022-11-21T07:33:52;30.48;;;16.48;;
59336;SDS011;45115;52.002;4.686;2022-11-21T07:36:18;33.92;;;16.15;;
59336;SDS011;45115;52.002;4.686;2022-11-21T07:38:45;31.85;;;16.25;;
59336;SDS011;45115;52.002;4.686;2022-11-21T07:41:12;32.95;;;16.60;;
59336;SDS011;45115;52.002;4.686;2022-11-21T07:43:38;30.92;;;16.27;;
59336;SDS011;45115;52.002;4.686;2022-11-21T07:46:05;31.83;;;15.93;;
59336;SDS011;45115;52.002;4.686;2022-11-21T07:48:33;34.42;;;16.52;;
59336;SDS011;45115;52.002;4.686;2022-11-21T07:51:01;45.40;;;18.73;;
59336;SDS011;45115;52.002;4.686;2022-11-21T07:53:29;44.42;;;18.67;;
59336;SDS011;45115;52.002;4.686;2022-11-21T07:55:56;31.50;;;16.35;;
59336;SDS011;45115;52.002;4.686;2022-11-21T07:58:23;44.60;;;17.55;;
59336;SDS011;45115;52.002;4.686;2022-11-21T08:00:50;35.75;;;17.02;;
59336;SDS011;45115;52.002;4.686;2022-11-21T08:03:17;44.30;;;17.38;;
59336;SDS011;45115;52.002;4.686;2022-11-21T08:05:45;33.05;;;15.63;;
59336;SDS011;45115;52.002;4.686;2022-11-21T08:08:12;32.60;;;15.88;;
59336;SDS011;45115;52.002;4.686;2022-11-21T08:10:40;35.70;;;17.42;;
59336;SDS011;45115;52.002;4.686;2022-11-21T08:13:08;33.70;;;16.25;;
59336;SDS011;45115;52.002;4.686;2022-11-21T08:15:35;33.33;;;17.05;;
59336;SDS011;45115;52.002;4.686;2022-11-21T08:18:08;32.35;;;16.98;;
59336;SDS011;45115;52.002;4.686;2022-11-21T08:20:36;31.33;;;16.05;;
59336;SDS011;45115;52.002;4.686;2022-11-21T08:23:04;34.72;;;15.48;;
59336;SDS011;45115;52.002;4.686;2022-11-21T08:25:31;31.40;;;15.95;;
59336;SDS011;45115;52.002;4.686;2022-11-21T08:27:58;28.80;;;15.48;;
59336;SDS011;45115;52.002;4.686;2022-11-21T08:30:26;32.80;;;16.58;;
59336;SDS011;45115;52.002;4.686;2022-11-21T08:32:54;30.90;;;15.93;;
59336;SDS011;45115;52.002;4.686;2022-11-21T08:35:23;33.83;;;15.45;;
59336;SDS011;45115;52.002;4.686;2022-11-21T08:37:53;30.77;;;15.82;;
59336;SDS011;45115;52.002;4.686;2022-11-21T08:42:54;26.65;;;14.38;;
59336;SDS011;45115;52.002;4.686;2022-11-21T08:45:21;30.55;;;16.38;;
59336;SDS011;45115;52.002;4.686;2022-11-21T08:47:48;30.45;;;15.10;;
59336;SDS011;45115;52.002;4.686;2022-11-21T08:50:15;33.33;;;17.02;;
59336;SDS011;45115;52.002;4.686;2022-11-21T08:52:41;34.03;;;16.83;;
59336;SDS011;45115;52.002;4.686;2022-11-21T08:55:08;34.45;;;16.10;;
59336;SDS011;45115;52.002;4.686;2022-11-21T08:57:37;30.58;;;16.27;;
59336;SDS011;45115;52.002;4.686;2022-11-21T09:00:04;33.33;;;16.70;;
59336;SDS011;45115;52.002;4.686;2022-11-21T09:02:32;33.72;;;17.52;;
59336;SDS011;45115;52.002;4.686;2022-11-21T09:04:59;42.35;;;19.10;;
59336;SDS011;45115;52.002;4.686;2022-11-21T09:07:26;38.85;;;19.30;;
59336;SDS011;45115;52.002;4.686;2022-11-21T09:09:52;37.40;;;20.23;;
59336;SDS011;45115;52.002;4.686;2022-11-21T09:12:19;36.28;;;20.05;;
59336;SDS011;45115;52.002;4.686;2022-11-21T09:14:47;40.53;;;21.58;;
59336;SDS011;45115;52.002;4.686;2022-11-21T09:17:31;40.60;;;20.40;;
59336;SDS011;45115;52.002;4.686;2022-11-21T09:20:15;47.42;;;21.30;;
59336;SDS011;45115;52.002;4.686;2022-11-21T09:22:42;36.03;;;18.92;;
59336;SDS011;45115;52.002;4.686;2022-11-21T09:25:08;39.90;;;19.13;;
59336;SDS011;45115;52.002;4.686;2022-11-21T09:27:35;34.80;;;17.23;;
59336;SDS011;45115;52.002;4.686;2022-11-21T09:30:03;36.17;;;16.80;;
59336;SDS011;45115;52.002;4.686;2022-11-21T09:32:30;39.40;;;17.30;;
59336;SDS011;45115;52.002;4.686;2022-11-21T09:34:57;33.97;;;15.25;;
59336;SDS011;45115;52.002;4.686;2022-11-21T09:37:24;31.98;;;16.55;;
59336;SDS011;45115;52.002;4.686;2022-11-21T09:39:50;34.22;;;16.92;;
59336;SDS011;45115;52.002;4.686;2022-11-21T09:42:24;31.85;;;15.88;;
59336;SDS011;45115;52.002;4.686;2022-11-21T09:45:06;33.90;;;15.90;;
59336;SDS011;45115;52.002;4.686;2022-11-21T09:47:36;31.25;;;15.40;;
59336;SDS011;45115;52.002;4.686;2022-11-21T09:50:15;35.95;;;17.52;;
59336;SDS011;45115;52.002;4.686;2022-11-21T09:52:50;36.05;;;16.65;;
59336;SDS011;45115;52.002;4.686;2022-11-21T09:55:23;36.47;;;17.45;;
59336;SDS011;45115;52.002;4.686;2022-11-21T09:57:54;36.78;;;17.17;;
59336;SDS011;45115;52.002;4.686;2022-11-21T10:00:23;36.55;;;18.20;;
59336;SDS011;45115;52.002;4.686;2022-11-21T10:02:51;38.70;;;18.13;;
59336;SDS011;45115;52.002;4.686;2022-11-21T10:05:19;35.30;;;17.25;;
59336;SDS011;45115;52.002;4.686;2022-11-21T10:07:52;31.83;;;15.48;;
59336;SDS011;45115;52.002;4.686;2022-11-21T10:10:24;28.50;;;16.45;;
59336;SDS011;45115;52.002;4.686;2022-11-21T10:13:03;29.23;;;14.70;;
59336;SDS011;45115;52.002;4.686;2022-11-21T10:15:46;33.42;;;14.82;;
59336;SDS011;45115;52.002;4.686;2022-11-21T10:18:30;26.83;;;14.75;;
59336;SDS011;45115;52.002;4.686;2022-11-21T10:21:19;32.92;;;13.32;;
59336;SDS011;45115;52.002;4.686;2022-11-21T10:24:08;26.65;;;13.18;;
59336;SDS011;45115;52.002;4.686;2022-11-21T10:26:49;25.05;;;13.40;;
59336;SDS011;45115;52.002;4.686;2022-11-21T10:29:18;27.63;;;13.20;;
59336;SDS011;45115;52.002;4.686;2022-11-21T10:31:50;27.73;;;13.45;;
59336;SDS011;45115;52.002;4.686;2022-11-21T10:34:21;27.33;;;12.75;;
59336;SDS011;45115;52.002;4.686;2022-11-21T10:36:53;24.90;;;11.50;;
59336;SDS011;45115;52.002;4.686;2022-11-21T10:39:24;20.48;;;10.93;;
59336;SDS011;45115;52.002;4.686;2022-11-21T10:42:00;22.15;;;10.10;;
59336;SDS011;45115;52.002;4.686;2022-11-21T10:44:35;20.85;;;9.63;;
59336;SDS011;45115;52.002;4.686;2022-11-21T10:47:21;22.00;;;10.13;;
59336;SDS011;45115;52.002;4.686;2022-11-21T10:49:54;19.30;;;9.85;;
59336;SDS011;45115;52.002;4.686;2022-11-21T10:52:24;21.67;;;9.88;;
59336;SDS011;45115;52.002;4.686;2022-11-21T10:55:01;22.67;;;10.10;;
59336;SDS011;45115;52.002;4.686;2022-11-21T10:57:30;20.15;;;10.00;;
59336;SDS011;45115;52.002;4.686;2022-11-21T11:00:12;23.70;;;10.88;;
59336;SDS011;45115;52.002;4.686;2022-11-21T11:02:48;24.05;;;9.55;;
59336;SDS011;45115;52.002;4.686;2022-11-21T11:05:28;19.13;;;8.88;;
59336;SDS011;45115;52.002;4.686;2022-11-21T11:08:00;18.38;;;9.15;;
59336;SDS011;45115;52.002;4.686;2022-11-21T11:10:29;17.20;;;8.75;;
59336;SDS011;45115;52.002;4.686;2022-11-21T11:12:57;19.92;;;8.93;;
59336;SDS011;45115;52.002;4.686;2022-11-21T11:15:51;20.80;;;9.30;;
59336;SDS011;45115;52.002;4.686;2022-11-21T11:18:21;17.70;;;8.88;;
59336;SDS011;45115;52.002;4.686;2022-11-21T11:20:49;17.83;;;8.85;;
59336;SDS011;45115;52.002;4.686;2022-11-21T11:23:21;16.92;;;8.52;;
59336;SDS011;45115;52.002;4.686;2022-11-21T11:25:50;19.17;;;8.27;;
59336;SDS011;45115;52.002;4.686;2022-11-21T11:28:19;19.85;;;8.82;;
59336;SDS011;45115;52.002;4.686;2022-11-21T11:30:48;21.50;;;8.13;;
59336;SDS011;45115;52.002;4.686;2022-11-21T11:33:34;14.18;;;7.25;;
59336;SDS011;45115;52.002;4.686;2022-11-21T11:36:12;17.65;;;7.55;;
59336;SDS011;45115;52.002;4.686;2022-11-21T11:38:41;16.88;;;7.30;;
59336;SDS011;45115;52.002;4.686;2022-11-21T11:41:12;17.73;;;7.22;;
59336;SDS011;45115;52.002;4.686;2022-11-21T11:43:49;14.40;;;6.40;;
59336;SDS011;45115;52.002;4.686;2022-11-21T11:46:43;10.80;;;6.10;;
59336;SDS011;45115;52.002;4.686;2022-11-21T11:49:42;14.00;;;6.72;;
59336;SDS011;45115;52.002;4.686;2022-11-21T11:52:32;14.57;;;6.47;;
59336;SDS011;45115;52.002;4.686;2022-11-21T11:55:13;12.57;;;6.35;;
59336;SDS011;45115;52.002;4.686;2022-11-21T11:57:46;13.07;;;5.60;;
59336;SDS011;45115;52.002;4.686;2022-11-21T12:00:20;13.55;;;5.55;;
59336;SDS011;45115;52.002;4.686;2022-11-21T12:02:52;12.30;;;5.38;;
59336;SDS011;45115;52.002;4.686;2022-11-21T12:05:25;11.23;;;5.25;;
59336;SDS011;45115;52.002;4.686;2022-11-21T12:08:01;12.15;;;5.65;;
59336;SDS011;45115;52.002;4.686;2022-11-21T12:10:32;10.55;;;5.72;;
59336;SDS011;45115;52.002;4.686;2022-11-21T12:13:23;9.82;;;5.70;;
59336;SDS011;45115;52.002;4.686;2022-11-21T12:15:53;13.05;;;5.97;;
59336;SDS011;45115;52.002;4.686;2022-11-21T12:18:28;11.13;;;5.78;;
59336;SDS011;45115;52.002;4.686;2022-11-21T12:21:02;14.50;;;6.05;;
59336;SDS011;45115;52.002;4.686;2022-11-21T12:23:35;11.32;;;6.15;;
59336;SDS011;45115;52.002;4.686;2022-11-21T12:26:11;11.88;;;6.38;;
59336;SDS011;45115;52.002;4.686;2022-11-21T12:28:50;12.32;;;6.00;;
59336;SDS011;45115;52.002;4.686;2022-11-21T12:31:30;15.40;;;6.60;;
59336;SDS011;45115;52.002;4.686;2022-11-21T12:34:08;12.40;;;6.60;;
59336;SDS011;45115;52.002;4.686;2022-11-21T12:36:48;14.32;;;7.20;;
59336;SDS011;45115;52.002;4.686;2022-11-21T12:39:38;13.68;;;6.10;;
59336;SDS011;45115;52.002;4.686;2022-11-21T12:42:34;13.45;;;6.30;;
59336;SDS011;45115;52.002;4.686;2022-11-21T12:54:42;9.23;;;4.38;;
59336;SDS011;45115;52.002;4.686;2022-11-21T12:57:18;10.50;;;4.45;;
59336;SDS011;45115;52.002;4.686;2022-11-21T12:59:47;9.32;;;4.05;;
59336;SDS011;45115;52.002;4.686;2022-11-21T13:02:25;19.50;;;4.40;;
59336;SDS011;45115;52.002;4.686;2022-11-21T13:04:58;9.57;;;3.60;;
59336;SDS011;45115;52.002;4.686;2022-11-21T13:07:29;8.33;;;3.60;;
59336;SDS011;45115;52.002;4.686;2022-11-21T13:09:58;9.55;;;3.97;;
59336;SDS011;45115;52.002;4.686;2022-11-21T13:12:30;8.38;;;3.30;;
59336;SDS011;45115;52.002;4.686;2022-11-21T13:15:04;6.88;;;3.38;;
59336;SDS011;45115;52.002;4.686;2022-11-21T13:17:43;11.85;;;4.03;;
59336;SDS011;45115;52.002;4.686;2022-11-21T13:20:24;9.10;;;3.67;;
59336;SDS011;45115;52.002;4.686;2022-11-21T13:22:58;9.90;;;4.43;;
59336;SDS011;45115;52.002;4.686;2022-11-21T13:25:38;10.40;;;4.45;;
59336;SDS011;45115;52.002;4.686;2022-11-21T13:33:52;18.35;;;4.10;;
59336;SDS011;45115;52.002;4.686;2022-11-21T13:36:35;8.88;;;3.92;;
59336;SDS011;45115;52.002;4.686;2022-11-21T13:42:11;7.68;;;4.25;;
59336;SDS011;45115;52.002;4.686;2022-11-21T13:44:56;8.30;;;4.00;;
59336;SDS011;45115;52.002;4.686;2022-11-21T13:47:47;9.80;;;4.25;;
59336;SDS011;45115;52.002;4.686;2022-11-21T13:50:33;10.32;;;3.80;;
59336;SDS011;45115;52.002;4.686;2022-11-21T13:53:34;10.70;;;3.97;;
59336;SDS011;45115;52.002;4.686;2022-11-21T13:56:17;9.85;;;3.80;;
59336;SDS011;45115;52.002;4.686;2022-11-21T13:58:55;9.15;;;4.20;;
59336;SDS011;45115;52.002;4.686;2022-11-21T14:01:38;9.88;;;4.13;;
59336;SDS011;45115;52.002;4.686;2022-11-21T14:07:15;7.40;;;3.83;;
59336;SDS011;45115;52.002;4.686;2022-11-21T14:09:48;8.30;;;3.60;;
59336;SDS011;45115;52.002;4.686;2022-11-21T14:12:21;6.47;;;3.55;;
59336;SDS011;45115;52.002;4.686;2022-11-21T14:14:52;9.30;;;4.22;;
59336;SDS011;45115;52.002;4.686;2022-11-21T14:20:07;7.70;;;3.25;;
59336;SDS011;45115;52.002;4.686;2022-11-21T14:22:41;9.63;;;3.83;;
59336;SDS011;45115;52.002;4.686;2022-11-21T14:25:14;10.93;;;3.75;;
59336;SDS011;45115;52.002;4.686;2022-11-21T14:27:46;10.13;;;3.97;;
59336;SDS011;45115;52.002;4.686;2022-11-21T14:35:50;8.23;;;3.60;;
59336;SDS011;45115;52.002;4.686;2022-11-21T14:38:20;9.80;;;3.80;;
59336;SDS011;45115;52.002;4.686;2022-11-21T14:40:47;12.75;;;3.80;;
59336;SDS011;45115;52.002;4.686;2022-11-21T14:43:24;9.65;;;4.65;;
59336;SDS011;45115;52.002;4.686;2022-11-21T14:45:55;6.50;;;3.67;;
59336;SDS011;45115;52.002;4.686;2022-11-21T14:48:25;7.28;;;3.30;;
59336;SDS011;45115;52.002;4.686;2022-11-21T14:50:53;10.45;;;4.15;;
59336;SDS011;45115;52.002;4.686;2022-11-21T14:53:21;9.43;;;4.00;;
59336;SDS011;45115;52.002;4.686;2022-11-21T14:55:49;13.13;;;4.78;;
59336;SDS011;45115;52.002;4.686;2022-11-21T14:58:17;7.95;;;3.88;;
59336;SDS011;45115;52.002;4.686;2022-11-21T15:01:02;10.88;;;4.22;;
59336;SDS011;45115;52.002;4.686;2022-11-21T15:03:29;9.35;;;4.20;;
59336;SDS011;45115;52.002;4.686;2022-11-21T15:06:00;7.70;;;3.70;;
59336;SDS011;45115;52.002;4.686;2022-11-21T15:08:33;11.50;;;4.43;;
59336;SDS011;45115;52.002;4.686;2022-11-21T15:11:01;8.05;;;3.83;;
59336;SDS011;45115;52.002;4.686;2022-11-21T15:13:28;10.95;;;4.57;;
59336;SDS011;45115;52.002;4.686;2022-11-21T15:16:01;14.85;;;4.80;;
59336;SDS011;45115;52.002;4.686;2022-11-21T15:18:29;8.15;;;3.63;;